Latest Weather Observations for Applethorpe

IDQ60801

Issued at 8:02 pm EST Friday 15 December 2017 (issued every 30 minutes, with the page automatically refreshed every 10 minutes)

About weather observations | Map of weather stations | Latest weather observations for QLD | Other Formats
Station Details ID: 041175 Name: APPLETHORPE Lat: -28.62 Lon: 151.95 Height: 871.6 m
Data from the previous 72 hours. | See also: Recent months at Applethorpe
Date/Time
EST
Temp
°C
App
Temp
°C
Dew
Point
°C
Rel
Hum
%
Delta-T
°C
Wind Press
QNH
hPa
Press
MSL
hPa
Rain since
9am
mm
Dir  Spd
km/h
Gust
km/h
Spd
kts
Gust
kts
15/08:00pm 21.4 21.6 14.3 64 4.3 NE 6 9 3 5 1017.5 1013.1 0.0
15/07:30pm 22.6 22.4 13.6 56 5.4 NE 7 13 4 7 1017.0 1012.6 0.0
15/07:00pm 23.5 23.4 13.2 52 6.2 ENE 6 9 3 5 1016.4 1012.0 0.0
15/06:30pm 25.1 25.0 13.4 48 7.1 E 6 17 3 9 1016.0 1011.5 0.0
15/06:00pm 26.8 26.4 13.0 42 8.4 ENE 7 17 4 9 1015.3 1010.9 0.0
15/05:30pm 27.8 27.3 12.0 37 9.5 E 6 15 3 8 1015.0 1010.5 0.0
15/05:00pm 28.7 26.9 10.8 33 10.6 ENE 11 22 6 12 1014.6 1010.2 0.0
15/04:30pm 29.4 27.9 10.4 30 11.2 ENE 9 19 5 10 1014.3 1009.9 0.0
15/04:00pm 29.7 27.9 9.4 28 11.8 E 9 17 5 9 1014.2 1009.8 0.0
15/03:30pm 30.5 29.2 9.9 28 12.1 ENE 7 15 4 8 1014.2 1009.8 0.0
15/03:00pm 30.9 29.5 9.5 26 12.5 NE 7 17 4 9 1014.3 1009.9 0.0
15/02:30pm 30.8 28.9 9.1 26 12.6 ENE 9 20 5 11 1014.5 1010.1 0.0
15/02:00pm 29.9 28.4 10.4 29 11.5 ENE 9 19 5 10 1014.8 1010.3 0.0
15/01:30pm 30.6 29.6 11.0 29 11.7 E 7 17 4 9 1015.1 1010.6 0.0
15/01:00pm 31.0 29.8 10.2 27 12.3 ENE 7 15 4 8 1015.4 1011.0 0.0
15/12:30pm 30.4 28.1 7.6 24 12.9 ENE 9 15 5 8 1015.6 1011.2 0.0
15/12:00pm 29.8 27.3 6.5 23 12.9 ENE 9 19 5 10 1015.8 1011.4 0.0
15/11:30am 29.3 26.9 7.1 24 12.4 E 9 17 5 9 1016.2 1011.7 0.0
15/11:00am 29.5 28.5 10.3 30 11.3 E 6 15 3 8 1016.5 1012.1 0.0
15/10:30am 28.6 27.4 10.4 32 10.7 E 7 19 4 10 1016.7 1012.3 0.0
15/10:00am 28.8 27.2 8.9 28 11.4 ENE 7 15 4 8 1016.9 1012.5 0.0
15/09:30am 27.5 25.4 5.9 25 11.7 NE 6 15 3 8 1017.0 1012.6 0.0
15/09:00am 26.2 26.0 11.9 41 8.5 N 4 7 2 4 1017.0 1012.6 0.0
15/08:30am 24.1 24.2 12.7 49 6.8 NE 4 6 2 3 1017.2 1012.7 0.0
15/08:00am 22.9 23.7 13.8 56 5.5 N 2 4 1 2 1017.3 1012.9 0.0
15/07:30am 21.1 22.6 14.7 67 3.9 CALM 0 0 0 0 1017.3 1012.9 0.0
15/07:00am 19.8 21.4 14.9 73 3.0 CALM 0 0 0 0 1017.2 1012.7 0.0
15/06:30am 17.4 19.1 15.1 86 1.4 CALM 0 0 0 0 1016.8 1012.4 0.0
15/06:00am 14.8 16.1 14.1 96 0.4 CALM 0 0 0 0 1016.5 1012.1 0.0
15/05:30am 13.3 14.1 12.6 95 0.4 CALM 0 0 0 0 1016.3 1011.9 0.0
15/05:00am 13.0 13.8 12.6 97 0.2 CALM 0 0 0 0 1016.0 1011.5 0.0
15/04:30am 13.0 13.8 12.6 97 0.2 CALM 0 0 0 0 1015.6 1011.2 0.0
15/04:00am 13.3 14.2 12.8 97 0.3 CALM 0 0 0 0 1015.4 1011.0 0.0
15/03:30am 13.3 14.2 13.0 98 0.2 CALM 0 0 0 0 1015.3 1010.9 0.0
15/03:00am 13.5 14.5 13.2 98 0.2 CALM 0 0 0 0 1015.1 1010.6 0.0
15/02:30am 14.1 15.2 13.6 97 0.3 CALM 0 0 0 0 1015.1 1010.6 0.0
15/02:00am 14.8 16.0 13.9 94 0.5 CALM 0 0 0 0 1015.2 1010.8 0.0
15/01:30am 15.0 16.3 14.0 94 0.6 CALM 0 0 0 0 1015.2 1010.8 0.0
15/01:00am 15.7 17.1 14.5 93 0.7 CALM 0 4 0 2 1015.4 1011.0 0.0
15/12:30am 16.0 17.5 14.7 92 0.8 CALM 0 2 0 1 1015.6 1011.2 0.0
15/12:00am 15.9 17.2 14.2 90 1.0 CALM 0 0 0 0 1015.8 1011.4 0.0
 
Date/Time
EST
Temp
°C
App
Temp
°C
Dew
Point
°C
Rel
Hum
%
Delta-T
°C
Wind Press
QNH
hPa
Press
MSL
hPa
Rain since
9am
mm
Dir  Spd
km/h
Gust
km/h
Spd
kts
Gust
kts
14/11:30pm 16.4 17.4 14.4 88 1.2 ENE 2 2 1 1 1016.1 1011.6 0.0
14/11:00pm 16.7 17.7 14.3 86 1.4 NE 2 4 1 2 1016.2 1011.7 0.0
14/10:30pm 17.2 18.2 14.2 82 1.8 ENE 2 4 1 2 1016.4 1012.0 0.0
14/10:00pm 17.4 18.4 14.4 82 1.8 ENE 2 4 1 2 1016.3 1011.9 0.0
14/09:30pm 17.8 18.6 13.7 77 2.4 NE 2 4 1 2 1016.4 1012.0 0.0
14/09:00pm 18.1 18.8 13.3 73 2.8 NE 2 4 1 2 1016.3 1011.9 0.0
14/08:30pm 19.5 20.1 13.2 67 3.7 NE 2 4 1 2 1016.0 1011.5 0.0
14/08:00pm 20.4 20.6 13.0 62 4.4 NE 4 7 2 4 1015.8 1011.4 0.0
14/07:30pm 21.7 21.8 12.6 56 5.4 NE 4 9 2 5 1015.7 1011.3 0.0
14/07:00pm 22.7 22.7 12.4 52 6.1 ENE 4 6 2 3 1015.3 1010.9 0.0
14/06:30pm 24.1 23.4 10.1 41 8.0 ENE 4 7 2 4 1014.9 1010.4 0.0
14/06:00pm 26.2 24.9 9.9 35 9.4 E 7 13 4 7 1014.5 1010.1 0.0
14/05:30pm 27.1 25.8 10.0 34 9.9 E 7 13 4 7 1014.3 1009.9 0.0
14/05:00pm 28.4 26.2 8.0 27 11.5 ENE 9 17 5 9 1014.0 1009.5 0.0
14/04:30pm 29.3 27.6 9.8 29 11.4 E 9 17 5 9 1013.8 1009.3 0.0
14/04:00pm 29.5 27.0 8.0 26 12.2 ENE 11 22 6 12 1013.7 1009.2 0.0
14/03:30pm 30.4 28.4 8.7 26 12.5 ENE 9 17 5 9 1013.8 1009.3 0.0
14/03:00pm 30.8 28.7 8.3 24 12.9 E 9 17 5 9 1013.8 1009.3 0.0
14/02:30pm 30.7 27.9 6.8 22 13.4 ENE 11 20 6 11 1014.0 1009.5 0.0
14/02:00pm 30.3 28.1 7.7 24 12.8 E 9 19 5 10 1014.2 1009.8 0.0
14/01:30pm 30.4 28.6 9.5 27 12.2 E 9 15 5 8 1014.2 1009.8 0.0
14/01:00pm 30.8 29.6 10.4 28 12.1 NE 7 13 4 7 1014.4 1010.0 0.0
14/12:30pm 30.7 29.8 11.4 30 11.6 NE 7 11 4 6 1014.9 1010.4 0.0
14/12:00pm 29.1 28.0 10.7 32 10.9 NE 7 15 4 8 1015.2 1010.8 0.0
14/11:30am 28.9 27.0 6.7 24 12.3 E 6 9 3 5 1015.5 1011.1 0.0
14/11:00am 27.9 25.7 5.2 23 12.2 NW 6 9 3 5 1016.0 1011.5 0.0
14/10:30am 27.1 25.3 5.2 24 11.7 SW 4 7 2 4 1016.2 1011.7 0.0
14/10:00am 26.8 26.4 11.2 37 9.2 E 4 7 2 4 1016.3 1011.9 0.0
14/09:30am 25.9 26.1 13.0 44 7.8 SSE 4 9 2 5 1016.5 1012.1 0.0
14/09:00am 24.0 24.4 12.6 49 6.8 N 2 7 1 4 1016.6 1012.2 0.0
14/08:30am 22.7 23.0 13.4 55 5.6 ESE 4 6 2 3 1016.7 1012.3 0.0
14/08:00am 20.6 21.0 13.6 64 4.2 S 4 7 2 4 1017.0 1012.6 0.0
14/07:30am 19.4 20.4 14.4 73 3.0 W 2 6 1 3 1017.3 1012.9 0.0
14/07:00am 17.5 18.5 14.3 81 1.9 SW 2 4 1 2 1017.4 1013.0 0.0
14/06:30am 16.4 17.4 14.2 87 1.3 S 2 4 1 2 1017.5 1013.1 0.0
14/06:00am 15.8 16.4 14.3 91 0.9 SSW 4 6 2 3 1017.6 1013.2 0.0
14/05:30am 15.7 17.1 14.4 92 0.8 CALM 0 4 0 2 1017.3 1012.9 0.0
14/05:00am 15.5 16.9 14.3 92 0.7 CALM 0 0 0 0 1017.0 1012.6 0.0
14/04:30am 15.6 17.0 14.4 93 0.7 CALM 0 0 0 0 1016.6 1012.2 0.0
14/04:00am 15.9 17.4 14.6 92 0.8 CALM 0 2 0 1 1016.5 1012.1 0.0
14/03:30am 16.1 17.1 14.4 90 1.0 NE 2 6 1 3 1016.5 1012.1 0.0
14/03:00am 16.3 17.5 14.8 91 0.9 E 2 6 1 3 1016.4 1012.0 0.0
14/02:30am 16.3 17.1 14.8 91 0.9 ENE 4 6 2 3 1016.5 1012.1 0.0
14/02:00am 16.1 17.1 15.3 95 0.5 ENE 4 7 2 4 1016.6 1012.2 0.0
14/01:30am 15.9 17.3 15.4 97 0.3 E 2 4 1 2 1016.8 1012.4 0.0
14/01:00am 15.9 17.2 15.2 96 0.4 NE 2 4 1 2 1017.3 1012.9 0.0
14/12:30am 16.4 17.1 15.6 95 0.5 ENE 6 9 3 5 1017.6 1013.2 0.0
14/12:00am 16.5 17.2 15.5 94 0.6 ENE 6 11 3 6 1018.0 1013.6 0.0
 
Date/Time
EST
Temp
°C
App
Temp
°C
Dew
Point
°C
Rel
Hum
%
Delta-T
°C
Wind Press
QNH
hPa
Press
MSL
hPa
Rain since
9am
mm
Dir  Spd
km/h
Gust
km/h
Spd
kts
Gust
kts
13/11:30pm 16.6 17.3 15.6 94 0.6 ENE 6 9 3 5 1018.2 1013.8 0.0
13/11:00pm 16.8 17.9 15.5 92 0.8 NE 4 6 2 3 1018.5 1014.1 0.0
13/10:30pm 17.3 18.0 15.5 89 1.1 ENE 6 9 3 5 1018.5 1014.1 0.0
13/10:00pm 17.8 18.4 15.3 85 1.5 ENE 6 11 3 6 1018.3 1014.0 0.0
13/09:30pm 16.9 17.1 14.2 84 1.6 ENE 6 9 3 5 1018.1 1013.7 0.0
13/09:00pm 17.2 17.0 13.1 77 2.4 NE 6 11 3 6 1018.0 1013.6 0.0
13/08:30pm 17.5 17.5 12.5 72 2.9 NE 4 6 2 3 1017.9 1013.5 0.0
13/08:00pm 18.3 18.2 12.2 67 3.5 ENE 4 7 2 4 1017.9 1013.5 0.0
13/07:30pm 18.9 18.9 12.4 66 3.8 ENE 4 6 2 3 1017.8 1013.4 0.0
13/07:00pm 20.0 19.5 11.9 59 4.7 ENE 6 7 3 4 1017.7 1013.3 0.0
13/06:30pm 21.4 20.8 11.8 54 5.6 ENE 6 9 3 5 1017.4 1013.0 0.0
13/06:00pm 23.2 22.0 11.6 48 6.8 E 9 19 5 10 1017.0 1012.6 0.0
13/05:30pm 24.4 22.8 11.6 44 7.5 ENE 11 19 6 10 1016.7 1012.3 0.0
13/05:00pm 25.0 23.4 11.6 43 7.9 ENE 11 22 6 12 1016.6 1012.2 0.0
13/04:30pm 25.9 24.7 11.5 40 8.5 E 9 15 5 8 1016.4 1012.0 0.0
13/04:00pm 26.6 25.3 11.2 38 9.1 E 9 20 5 11 1016.3 1011.9 0.0
13/03:30pm 26.7 24.1 9.2 33 10.0 E 13 28 7 15 1016.4 1012.0 0.0
13/03:00pm 26.6 23.9 8.8 32 10.1 ESE 13 22 7 12 1016.4 1012.0 0.0
13/02:30pm 27.1 25.0 9.8 33 10.0 E 11 20 6 11 1016.8 1012.4 0.0
13/02:00pm 27.6 25.5 9.8 32 10.3 E 11 20 6 11 1017.0 1012.6 0.0
13/01:30pm 26.8 24.7 9.8 34 9.8 ESE 11 24 6 13 1017.4 1013.0 0.0
13/01:00pm 26.8 24.7 9.8 34 9.8 E 11 20 6 11 1017.7 1013.3 0.0
13/12:30pm 26.8 25.7 10.5 36 9.5 E 7 17 4 9 1018.0 1013.6 0.0
13/12:00pm 25.9 24.2 9.9 36 9.2 ENE 9 19 5 10 1018.2 1013.8 0.0
13/11:30am 25.3 24.3 10.9 40 8.4 E 7 13 4 7 1018.7 1014.3 0.0
13/11:00am 24.6 23.7 10.8 42 8.0 NE 6 15 3 8 1019.1 1014.7 0.0
13/10:30am 23.9 23.1 11.2 44 7.4 ENE 6 13 3 7 1019.2 1014.8 0.0
13/10:00am 23.1 22.2 11.4 47 6.8 ENE 7 13 4 7 1019.4 1015.1 0.0
13/09:30am 22.4 21.4 11.1 48 6.5 ENE 7 13 4 7 1019.3 1015.0 0.0
13/09:00am 21.2 20.9 12.7 58 5.0 ENE 6 11 3 6 1019.5 1015.2 0.0
13/08:30am 19.9 19.2 12.1 60 4.5 ENE 7 13 4 7 1019.8 1015.4 0.0
13/08:00am 19.3 18.8 12.0 62 4.2 E 6 11 3 6 1019.8 1015.4 0.0
13/07:30am 18.2 17.6 12.3 68 3.4 E 7 13 4 7 1019.5 1015.2 0.0
13/07:00am 17.1 16.2 12.6 75 2.6 E 9 15 5 8 1019.4 1015.1 0.0
13/06:30am 15.7 15.2 12.6 82 1.8 ENE 7 15 4 8 1019.0 1014.6 0.0
13/06:00am 14.9 14.3 12.4 85 1.4 E 7 17 4 9 1018.8 1014.4 0.0
13/05:30am 14.5 13.9 12.4 87 1.2 E 7 13 4 7 1018.5 1014.1 0.0
13/05:00am 13.9 14.0 12.7 92 0.7 ENE 4 7 2 4 1018.2 1013.8 0.0
13/04:30am 14.1 14.2 12.7 91 0.8 ENE 4 7 2 4 1018.1 1013.7 0.0
13/04:00am 14.6 14.4 12.9 89 1.0 E 6 13 3 7 1018.1 1013.7 0.0
13/03:30am 14.5 14.7 12.9 90 0.9 ENE 4 9 2 5 1018.2 1013.8 0.0
13/03:00am 14.6 14.4 12.9 89 1.0 E 6 13 3 7 1018.1 1013.7 0.0
13/02:30am 15.0 14.9 13.3 89 1.0 E 6 13 3 7 1018.1 1013.7 0.0
13/02:00am 15.2 15.0 13.5 89 1.0 ESE 7 15 4 8 1018.3 1014.0 0.0
13/01:30am 15.5 15.6 13.8 90 1.0 E 6 11 3 6 1018.6 1014.2 0.0
13/01:00am 15.5 15.3 13.6 88 1.1 ENE 7 15 4 8 1018.9 1014.5 0.0
13/12:30am 15.6 15.4 13.7 88 1.1 ENE 7 15 4 8 1019.2 1014.8 0.0
13/12:00am 15.8 15.9 13.9 88 1.1 ENE 6 17 3 9 1019.5 1015.2 0.0
 
Date/Time
EST
Temp
°C
App
Temp
°C
Dew
Point
°C
Rel
Hum
%
Delta-T
°C
Wind Press
QNH
hPa
Press
MSL
hPa
Rain since
9am
mm
Dir  Spd
km/h
Gust
km/h
Spd
kts
Gust
kts
12/11:30pm 16.0 15.9 14.0 88 1.2 ENE 7 15 4 8 1019.9 1015.5 0.0
12/11:00pm 15.9 15.8 13.9 88 1.2 ENE 7 13 4 7 1020.3 1015.9 0.0
12/10:30pm 16.4 15.9 13.9 85 1.5 ENE 9 19 5 10 1020.4 1016.1 0.0
12/10:00pm 16.9 16.5 14.0 83 1.7 ENE 9 17 5 9 1020.5 1016.2 0.0
12/09:30pm 17.0 17.1 14.5 85 1.5 ENE 7 17 4 9 1020.6 1016.3 0.0
12/09:00pm 16.5 16.7 14.7 89 1.1 ENE 7 17 4 9 1020.5 1016.2 0.0
12/08:30pm 16.8 17.1 14.5 86 1.4 ENE 6 11 3 6 1020.5 1016.2 0.0

Other Formats:

Comma delimited format used in spreadsheet applications
http://www.bom.gov.au/fwo/IDQ60801/IDQ60801.94553.axf

JavaScript Object Notation format (JSON) in row-major order
http://www.bom.gov.au/fwo/IDQ60801/IDQ60801.94553.json